Time;durP1;ratioP1;P1;durP2;ratioP2;P2;SDS_P1;SDS_P2;PMS_P1;PMS_P2;Temp;Humidity;BMP_temperature;BMP_pressure;BME280_temperature;BME280_humidity;BME280_pressure;Samples;Min_cycle;Max_cycle;Signal;HPM_P1;HPM_P2
2022/11/07 00:01:09;;;;;;;;;;;11.80;99.90;;;;;;5096341;28;19918;-36
2022/11/07 00:03:35;;;;;;;;;;;11.80;99.90;;;;;;5105451;28;20395;-35
2022/11/07 00:06:00;;;;;;;;;;;11.80;99.90;;;;;;5102711;28;19946;-39
2022/11/07 00:08:30;;;;;;;;;;;11.80;99.90;;;;;;5108466;28;19908;-42
2022/11/07 00:10:56;;;;;;;;;;;11.80;99.90;;;;;;5094706;28;20359;-40
2022/11/07 00:13:22;;;;;;;;;;;11.80;99.90;;;;;;5104716;28;20253;-43
2022/11/07 00:15:47;;;;;;;;;;;11.80;99.90;;;;;;5091732;28;19934;-41
2022/11/07 00:18:13;;;;;;;;;;;11.80;99.90;;;;;;5095474;28;19908;-41
2022/11/07 00:20:38;;;;;;;;;;;11.80;99.90;;;;;;5113610;28;19951;-41
2022/11/07 00:23:04;;;;;;;;;;;11.80;99.90;;;;;;5113362;28;19922;-41
2022/11/07 00:25:29;;;;;;;;;;;11.80;99.90;;;;;;5104147;28;19907;-42
2022/11/07 00:27:55;;;;;;;;;;;11.80;99.90;;;;;;5096764;28;19976;-42
2022/11/07 00:30:20;;;;;;;;;;;11.80;99.90;;;;;;5098638;28;19912;-45
2022/11/07 00:32:46;;;;;;;;;;;11.90;99.90;;;;;;5110291;28;19908;-37
2022/11/07 00:35:11;;;;;;;;;;;11.90;99.90;;;;;;5103940;28;19953;-41
2022/11/07 00:37:37;;;;;;;;;;;11.90;99.90;;;;;;5115822;28;19912;-41
2022/11/07 00:40:02;;;;;;;;;;;11.90;99.90;;;;;;5105924;28;19912;-57
2022/11/07 00:42:28;;;;;;;;;;;11.90;99.90;;;;;;5103904;28;19915;-40
2022/11/07 00:44:53;;;;;;;;;;;11.90;99.90;;;;;;5103278;28;20493;-34
2022/11/07 00:47:19;;;;;;;;;;;11.80;99.90;;;;;;5111249;28;19951;-42
2022/11/07 00:49:44;;;;;;;;;;;11.80;99.90;;;;;;5094772;28;19908;-35
2022/11/07 00:52:10;;;;;;;;;;;11.90;99.90;;;;;;5103911;28;20407;-32
2022/11/07 00:54:35;;;;;;;;;;;11.90;99.90;;;;;;5116053;27;20015;-33
2022/11/07 00:57:01;;;;;;;;;;;11.90;99.90;;;;;;5116342;28;20386;-33
2022/11/07 00:59:26;;;;;;;;;;;11.90;99.90;;;;;;5116547;28;19946;-34
2022/11/07 01:01:52;;;;;;;;;;;11.80;99.90;;;;;;5113953;28;20006;-30
2022/11/07 01:07:02;;;;;;;;;;;11.90;99.90;;;;;;5116346;28;19958;-33
2022/11/07 01:09:27;;;;;;;;;;;11.80;99.90;;;;;;5116620;28;20336;-33
2022/11/07 01:11:53;;;;;;;;;;;11.80;99.90;;;;;;5114808;28;19919;-35
2022/11/07 01:14:20;;;;;;;;;;;11.80;99.90;;;;;;5116023;28;20325;-42
2022/11/07 01:16:46;;;;;;;;;;;11.80;99.90;;;;;;5116259;28;19907;-40
2022/11/07 01:19:12;;;;;;;;;;;11.80;99.90;;;;;;5103455;28;19930;-39
2022/11/07 01:21:38;;;;;;;;;;;11.80;99.90;;;;;;5095660;28;19920;-39
2022/11/07 01:24:05;;;;;;;;;;;11.80;99.90;;;;;;5098161;28;19908;-40
2022/11/07 01:26:31;;;;;;;;;;;11.80;99.90;;;;;;5116038;28;20378;-44
2022/11/07 01:28:56;;;;;;;;;;;11.90;99.90;;;;;;5102551;28;19908;-42
2022/11/07 01:31:21;;;;;;;;;;;11.90;99.90;;;;;;5095623;28;20007;-42
2022/11/07 01:33:47;;;;;;;;;;;11.80;99.90;;;;;;5095376;28;19907;-42
2022/11/07 01:36:14;;;;;;;;;;;11.90;99.90;;;;;;5099152;28;19914;-42
2022/11/07 01:38:41;;;;;;;;;;;11.90;99.90;;;;;;5102749;28;20280;-42
2022/11/07 01:41:20;;;;;;;;;;;11.90;99.90;;;;;;5094706;28;19912;-40
2022/11/07 01:43:48;;;;;;;;;;;11.90;99.90;;;;;;5108460;28;20364;-40
2022/11/07 01:46:14;;;;;;;;;;;11.90;99.90;;;;;;5114649;27;19911;-41
2022/11/07 01:48:40;;;;;;;;;;;12.00;99.90;;;;;;5115567;28;20260;-40
2022/11/07 01:51:06;;;;;;;;;;;11.90;99.90;;;;;;5103589;28;20422;-40
2022/11/07 01:53:33;;;;;;;;;;;11.90;99.90;;;;;;5102121;28;19966;-39
2022/11/07 01:55:59;;;;;;;;;;;11.90;99.90;;;;;;5102675;28;20447;-35
2022/11/07 01:58:24;;;;;;;;;;;11.90;99.90;;;;;;5103799;28;19952;-35
2022/11/07 02:00:50;;;;;;;;;;;12.00;99.90;;;;;;5112358;28;20431;-32
2022/11/07 02:03:17;;;;;;;;;;;12.00;99.90;;;;;;5113304;28;19907;-37
2022/11/07 02:05:46;;;;;;;;;;;11.90;99.90;;;;;;5111571;28;19925;-32
2022/11/07 02:08:12;;;;;;;;;;;11.90;99.90;;;;;;5096689;28;19914;-43
2022/11/07 02:10:39;;;;;;;;;;;11.90;99.90;;;;;;5097447;28;20278;-42
2022/11/07 02:13:05;;;;;;;;;;;11.90;99.90;;;;;;5101817;28;19914;-44
2022/11/07 02:15:32;;;;;;;;;;;11.90;99.90;;;;;;5102949;28;19908;-52
2022/11/07 02:17:57;;;;;;;;;;;11.80;99.90;;;;;;5094253;28;20363;-43
2022/11/07 02:20:23;;;;;;;;;;;11.80;99.90;;;;;;5094607;28;19916;-44
2022/11/07 02:22:48;;;;;;;;;;;11.80;99.90;;;;;;5094610;28;20407;-42
2022/11/07 02:25:15;;;;;;;;;;;11.80;99.90;;;;;;5092970;28;19915;-40
2022/11/07 02:27:41;;;;;;;;;;;11.80;99.90;;;;;;5103948;28;20312;-44
2022/11/07 02:30:09;;;;;;;;;;;11.80;99.90;;;;;;5105937;28;20359;-41
2022/11/07 02:32:35;;;;;;;;;;;11.70;99.90;;;;;;5109404;28;19908;-43
2022/11/07 02:35:02;;;;;;;;;;;11.70;99.90;;;;;;5094344;28;20390;-42
2022/11/07 02:37:32;;;;;;;;;;;11.70;99.90;;;;;;5094317;28;19912;-43
2022/11/07 02:39:59;;;;;;;;;;;11.70;99.90;;;;;;5094036;28;19955;-40
2022/11/07 02:42:25;;;;;;;;;;;11.60;99.90;;;;;;5107786;28;19911;-41
2022/11/07 02:44:52;;;;;;;;;;;11.60;99.90;;;;;;5102684;28;19961;-43
2022/11/07 02:47:18;;;;;;;;;;;11.60;99.90;;;;;;5107448;28;19907;-43
2022/11/07 02:49:43;;;;;;;;;;;11.70;99.90;;;;;;5108657;28;19908;-45
2022/11/07 02:52:09;;;;;;;;;;;11.70;99.90;;;;;;5103507;28;20382;-44
2022/11/07 02:54:34;;;;;;;;;;;11.70;99.90;;;;;;5102837;28;19908;-42
2022/11/07 02:57:00;;;;;;;;;;;11.80;99.90;;;;;;5093171;28;20359;-44
2022/11/07 02:59:25;;;;;;;;;;;11.70;99.90;;;;;;5094847;28;19907;-43
2022/11/07 03:01:51;;;;;;;;;;;11.80;99.90;;;;;;5095344;28;19912;-42
2022/11/07 03:04:16;;;;;;;;;;;11.70;99.90;;;;;;5100602;28;19912;-43
2022/11/07 03:06:42;;;;;;;;;;;11.70;99.90;;;;;;5106391;28;20359;-43
2022/11/07 03:09:07;;;;;;;;;;;11.70;99.90;;;;;;5113277;28;19911;-41
2022/11/07 03:11:33;;;;;;;;;;;11.80;99.90;;;;;;5099618;28;20430;-42
2022/11/07 03:13:58;;;;;;;;;;;11.80;99.90;;;;;;5095116;28;19914;-41
2022/11/07 03:16:24;;;;;;;;;;;11.80;99.90;;;;;;5097042;28;20364;-44
2022/11/07 03:18:49;;;;;;;;;;;11.80;99.90;;;;;;5101889;28;20021;-43
2022/11/07 03:21:15;;;;;;;;;;;11.80;99.90;;;;;;5103453;28;20391;-42
2022/11/07 03:23:40;;;;;;;;;;;11.80;99.90;;;;;;5098924;28;19915;-42
2022/11/07 03:26:06;;;;;;;;;;;11.80;99.90;;;;;;5103147;28;19934;-45
2022/11/07 03:28:32;;;;;;;;;;;11.80;99.90;;;;;;5103990;28;19934;-41
2022/11/07 03:31:01;;;;;;;;;;;11.80;99.90;;;;;;5094876;28;19999;-43
2022/11/07 03:33:27;;;;;;;;;;;11.80;99.90;;;;;;5103200;28;20394;-44
2022/11/07 03:35:53;;;;;;;;;;;11.80;99.90;;;;;;5098248;28;19908;-44
2022/11/07 03:38:19;;;;;;;;;;;11.80;99.90;;;;;;5109931;28;19907;-44
2022/11/07 03:40:45;;;;;;;;;;;11.80;99.90;;;;;;5107825;28;20367;-45
2022/11/07 03:43:10;;;;;;;;;;;11.80;99.90;;;;;;5097154;28;19915;-52
2022/11/07 03:45:36;;;;;;;;;;;11.80;99.90;;;;;;5112881;28;20295;-40
2022/11/07 03:48:01;;;;;;;;;;;11.80;99.90;;;;;;5111450;28;19907;-40
2022/11/07 03:50:27;;;;;;;;;;;11.80;99.90;;;;;;5105856;28;20382;-43
2022/11/07 03:52:52;;;;;;;;;;;11.80;99.90;;;;;;5096767;28;19953;-43
2022/11/07 03:55:18;;;;;;;;;;;11.80;99.90;;;;;;5094155;28;19915;-40
2022/11/07 03:57:44;;;;;;;;;;;11.70;99.90;;;;;;5095022;28;19908;-39
2022/11/07 04:00:09;;;;;;;;;;;11.70;99.90;;;;;;5092821;28;20028;-40
2022/11/07 04:02:35;;;;;;;;;;;11.70;99.90;;;;;;5106269;28;19955;-42
2022/11/07 04:05:00;;;;;;;;;;;11.80;99.90;;;;;;5106503;28;19965;-38
2022/11/07 04:07:26;;;;;;;;;;;11.70;99.90;;;;;;5097266;28;19995;-40
2022/11/07 04:09:51;;;;;;;;;;;11.80;99.90;;;;;;5099322;28;19916;-40
2022/11/07 04:17:45;;;;;;;;;;;11.80;99.90;;;;;;5102884;28;19926;-43
2022/11/07 04:20:10;;;;;;;;;;;11.80;99.90;;;;;;5100298;28;19916;-42
2022/11/07 04:22:36;;;;;;;;;;;11.80;99.90;;;;;;5109783;28;20375;-42
2022/11/07 04:25:02;;;;;;;;;;;11.90;99.90;;;;;;5107303;28;20014;-43
2022/11/07 04:27:42;;;;;;;;;;;11.90;99.90;;;;;;5099485;28;19919;-42
2022/11/07 04:30:19;;;;;;;;;;;11.90;99.90;;;;;;5115838;28;19913;-44
2022/11/07 04:32:45;;;;;;;;;;;11.90;99.90;;;;;;5109061;28;19972;-43
2022/11/07 04:35:10;;;;;;;;;;;11.90;99.90;;;;;;5098217;28;20348;-44
2022/11/07 04:37:36;;;;;;;;;;;11.90;99.90;;;;;;5111170;28;19914;-42
2022/11/07 04:40:02;;;;;;;;;;;11.90;99.90;;;;;;5096212;28;19912;-34
2022/11/07 04:42:27;;;;;;;;;;;11.90;99.90;;;;;;5109013;28;20286;-57
2022/11/07 04:44:52;;;;;;;;;;;12.00;99.90;;;;;;5107245;28;19907;-42
2022/11/07 04:47:18;;;;;;;;;;;12.00;99.90;;;;;;5094189;28;19911;-40
2022/11/07 04:49:43;;;;;;;;;;;12.00;99.90;;;;;;5094126;28;20355;-42
2022/11/07 04:52:10;;;;;;;;;;;11.90;99.90;;;;;;5108901;28;19907;-42
2022/11/07 04:54:36;;;;;;;;;;;12.00;99.90;;;;;;5114538;28;20295;-45
2022/11/07 04:57:01;;;;;;;;;;;12.00;99.90;;;;;;5112650;28;19912;-42
2022/11/07 04:59:27;;;;;;;;;;;12.00;99.90;;;;;;5097075;28;19916;-44
2022/11/07 05:01:52;;;;;;;;;;;12.00;99.90;;;;;;5095216;28;20399;-46
2022/11/07 05:04:18;;;;;;;;;;;12.00;99.90;;;;;;5098521;28;19915;-42
2022/11/07 05:06:43;;;;;;;;;;;12.00;99.90;;;;;;5103100;28;19908;-40
2022/11/07 05:09:13;;;;;;;;;;;12.00;99.90;;;;;;5109060;28;20309;-42
2022/11/07 05:11:38;;;;;;;;;;;12.00;99.90;;;;;;5110902;28;19912;-42
2022/11/07 05:14:04;;;;;;;;;;;12.00;99.90;;;;;;5100313;28;20360;-42
2022/11/07 05:16:29;;;;;;;;;;;12.00;99.90;;;;;;5105387;28;19908;-42
2022/11/07 05:18:55;;;;;;;;;;;12.10;99.90;;;;;;5104710;28;19914;-41
2022/11/07 05:21:20;;;;;;;;;;;12.10;99.90;;;;;;5099717;28;19988;-41
2022/11/07 05:23:46;;;;;;;;;;;12.10;99.90;;;;;;5115352;28;20294;-45
2022/11/07 05:26:11;;;;;;;;;;;12.10;99.90;;;;;;5115254;28;19953;-43
2022/11/07 05:28:37;;;;;;;;;;;12.10;99.90;;;;;;5096520;28;19912;-44
2022/11/07 05:31:03;;;;;;;;;;;12.10;99.90;;;;;;5097913;28;19907;-42
2022/11/07 05:33:29;;;;;;;;;;;12.10;99.90;;;;;;5102042;28;19994;-44
2022/11/07 05:35:55;;;;;;;;;;;12.10;99.90;;;;;;5108306;28;20034;-42
2022/11/07 05:38:20;;;;;;;;;;;12.10;99.90;;;;;;5095143;28;20269;-38
2022/11/07 05:40:45;;;;;;;;;;;12.10;99.90;;;;;;5097051;28;19912;-43
2022/11/07 05:43:12;;;;;;;;;;;12.20;99.90;;;;;;5101212;28;20375;-43
2022/11/07 05:45:39;;;;;;;;;;;12.20;99.90;;;;;;5115093;28;19954;-40
2022/11/07 05:48:06;;;;;;;;;;;12.20;99.90;;;;;;5115762;28;19908;-42
2022/11/07 05:50:32;;;;;;;;;;;12.20;99.90;;;;;;5101249;28;19914;-45
2022/11/07 05:52:58;;;;;;;;;;;12.20;99.90;;;;;;5097546;28;19908;-45
2022/11/07 05:55:23;;;;;;;;;;;12.20;99.90;;;;;;5111771;28;20379;-41
2022/11/07 05:57:49;;;;;;;;;;;12.20;99.90;;;;;;5105424;28;20359;-37
2022/11/07 06:00:15;;;;;;;;;;;12.20;99.90;;;;;;5094368;28;19981;-37
2022/11/07 06:02:41;;;;;;;;;;;12.20;99.90;;;;;;5097414;28;19907;-37
2022/11/07 06:05:06;;;;;;;;;;;12.30;99.90;;;;;;5094561;28;19912;-39
2022/11/07 06:07:33;;;;;;;;;;;12.30;99.90;;;;;;5102134;28;19908;-48
2022/11/07 06:09:59;;;;;;;;;;;12.30;99.90;;;;;;5106932;28;19908;-36
2022/11/07 06:12:24;;;;;;;;;;;12.20;99.90;;;;;;5100163;28;19918;-41
2022/11/07 06:14:50;;;;;;;;;;;12.30;99.90;;;;;;5099211;28;19907;-34
2022/11/07 06:17:15;;;;;;;;;;;12.30;99.90;;;;;;5114092;28;19907;-36
2022/11/07 06:19:41;;;;;;;;;;;12.30;99.90;;;;;;5106456;28;19995;-36
2022/11/07 06:22:06;;;;;;;;;;;12.20;99.90;;;;;;5096044;28;19930;-39
2022/11/07 06:24:32;;;;;;;;;;;12.30;99.90;;;;;;5112919;28;19994;-38
2022/11/07 06:26:57;;;;;;;;;;;12.30;99.90;;;;;;5111906;28;19911;-36
2022/11/07 06:29:23;;;;;;;;;;;12.30;99.90;;;;;;5107947;28;19914;-35
2022/11/07 06:31:48;;;;;;;;;;;12.30;99.90;;;;;;5113387;28;19915;-39
2022/11/07 06:34:14;;;;;;;;;;;12.30;99.90;;;;;;5092939;28;19908;-34
2022/11/07 06:36:39;;;;;;;;;;;12.30;99.90;;;;;;5097941;28;19908;-37
2022/11/07 06:39:05;;;;;;;;;;;12.40;99.90;;;;;;5095449;28;19999;-42
2022/11/07 06:41:30;;;;;;;;;;;12.30;99.90;;;;;;5107212;28;20351;-42
2022/11/07 06:43:56;;;;;;;;;;;12.40;99.90;;;;;;5102424;28;19908;-42
2022/11/07 06:46:22;;;;;;;;;;;12.40;99.90;;;;;;5094523;28;19950;-41
2022/11/07 06:48:47;;;;;;;;;;;12.50;99.90;;;;;;5103502;28;20287;-42
2022/11/07 06:51:13;;;;;;;;;;;12.50;99.90;;;;;;5104101;28;19914;-42
2022/11/07 06:53:38;;;;;;;;;;;12.50;99.90;;;;;;5103694;28;20040;-42
2022/11/07 06:56:05;;;;;;;;;;;12.50;99.90;;;;;;5095337;28;19915;-43
2022/11/07 06:58:30;;;;;;;;;;;12.60;99.90;;;;;;5091908;28;19907;-38
2022/11/07 07:01:14;;;;;;;;;;;12.60;99.90;;;;;;5102903;28;19919;-42
2022/11/07 07:03:40;;;;;;;;;;;12.60;99.90;;;;;;5094866;28;19907;-38
2022/11/07 07:06:07;;;;;;;;;;;12.60;99.90;;;;;;5093728;28;19908;-42
2022/11/07 07:08:32;;;;;;;;;;;12.70;99.90;;;;;;5102742;28;19908;-41
2022/11/07 07:11:02;;;;;;;;;;;12.60;99.90;;;;;;5101851;28;19908;-41
2022/11/07 07:13:28;;;;;;;;;;;12.70;99.90;;;;;;5112073;28;20372;-41
2022/11/07 07:15:54;;;;;;;;;;;12.70;99.90;;;;;;5102132;28;19998;-42
2022/11/07 07:18:19;;;;;;;;;;;12.70;99.90;;;;;;5116992;27;19960;-41
2022/11/07 07:20:45;;;;;;;;;;;12.70;99.90;;;;;;5123937;27;20335;-42
2022/11/07 07:23:11;;;;;;;;;;;12.80;99.90;;;;;;5119494;27;19995;-41
2022/11/07 07:25:37;;;;;;;;;;;12.80;99.90;;;;;;5107362;28;20010;-38
2022/11/07 07:28:02;;;;;;;;;;;12.90;99.90;;;;;;5101718;28;19914;-39
2022/11/07 07:30:28;;;;;;;;;;;12.80;99.90;;;;;;5111050;28;19914;-41
2022/11/07 07:32:53;;;;;;;;;;;12.80;99.90;;;;;;5112939;28;19911;-42
2022/11/07 07:35:19;;;;;;;;;;;12.80;99.90;;;;;;5112426;27;19949;-46
2022/11/07 07:37:47;;;;;;;;;;;12.80;99.90;;;;;;5112180;27;19932;-46
2022/11/07 07:40:13;;;;;;;;;;;12.90;99.90;;;;;;5113661;27;20427;-42
2022/11/07 07:42:40;;;;;;;;;;;12.90;99.90;;;;;;5117737;28;19962;-41
2022/11/07 07:45:05;;;;;;;;;;;12.90;99.90;;;;;;5103893;28;19907;-40
2022/11/07 07:47:31;;;;;;;;;;;13.00;99.90;;;;;;5104281;28;20287;-40
2022/11/07 07:49:56;;;;;;;;;;;13.00;99.90;;;;;;5096967;28;20295;-41
2022/11/07 07:52:22;;;;;;;;;;;13.00;99.90;;;;;;5103836;28;19912;-41
2022/11/07 07:54:47;;;;;;;;;;;13.00;99.90;;;;;;5096351;28;19965;-41
2022/11/07 07:57:13;;;;;;;;;;;13.10;99.90;;;;;;5091956;28;19907;-41
2022/11/07 07:59:38;;;;;;;;;;;13.10;99.90;;;;;;5095826;28;19912;-41
2022/11/07 08:02:04;;;;;;;;;;;13.10;99.90;;;;;;5096651;28;20292;-41
2022/11/07 08:04:30;;;;;;;;;;;13.10;99.90;;;;;;5095091;28;19908;-42
2022/11/07 08:06:55;;;;;;;;;;;13.20;99.90;;;;;;5111760;28;20271;-43
2022/11/07 08:09:21;;;;;;;;;;;13.20;99.90;;;;;;5097078;28;20378;-41
2022/11/07 08:11:46;;;;;;;;;;;13.10;99.90;;;;;;5102385;28;19914;-41
2022/11/07 08:14:12;;;;;;;;;;;13.30;99.90;;;;;;5106734;28;19912;-42
2022/11/07 08:16:37;;;;;;;;;;;13.40;99.90;;;;;;5100850;28;19908;-41
2022/11/07 08:19:03;;;;;;;;;;;13.50;99.90;;;;;;5098035;28;19916;-42
2022/11/07 08:21:28;;;;;;;;;;;13.50;99.90;;;;;;5102247;28;19916;-40
2022/11/07 08:23:55;;;;;;;;;;;13.60;99.90;;;;;;5106599;28;20439;-42
2022/11/07 08:26:20;;;;;;;;;;;13.60;99.90;;;;;;5092078;28;19912;-41
2022/11/07 08:28:46;;;;;;;;;;;13.60;99.90;;;;;;5097467;28;20253;-40
2022/11/07 08:31:11;;;;;;;;;;;13.60;99.90;;;;;;5092429;28;19908;-38
2022/11/07 08:33:37;;;;;;;;;;;13.60;99.90;;;;;;5103475;28;19912;-36
2022/11/07 08:36:03;;;;;;;;;;;13.60;99.90;;;;;;5099811;28;20416;-35
2022/11/07 08:38:29;;;;;;;;;;;13.60;99.90;;;;;;5105706;28;19907;-41
2022/11/07 08:40:55;;;;;;;;;;;13.60;99.90;;;;;;5095601;28;19923;-39
2022/11/07 08:43:21;;;;;;;;;;;13.60;99.90;;;;;;5093819;28;19907;-38
2022/11/07 08:45:47;;;;;;;;;;;13.60;99.90;;;;;;5100797;28;20097;-42
2022/11/07 08:48:13;;;;;;;;;;;13.70;99.90;;;;;;5107811;28;19914;-35
2022/11/07 08:50:39;;;;;;;;;;;13.70;99.90;;;;;;5116718;28;19988;-39
2022/11/07 08:53:04;;;;;;;;;;;13.70;99.90;;;;;;5111497;28;20372;-41
2022/11/07 08:55:30;;;;;;;;;;;13.70;99.90;;;;;;5102850;28;20302;-37
2022/11/07 08:57:56;;;;;;;;;;;13.70;99.90;;;;;;5105291;28;20356;-38
2022/11/07 09:00:22;;;;;;;;;;;13.80;99.90;;;;;;5093047;28;20443;-51
2022/11/07 09:02:47;;;;;;;;;;;13.80;99.90;;;;;;5099331;28;19931;-38
2022/11/07 09:05:13;;;;;;;;;;;13.90;99.90;;;;;;5107063;28;19958;-35
2022/11/07 09:07:39;;;;;;;;;;;13.90;99.90;;;;;;5103038;28;20424;-37
2022/11/07 09:10:05;;;;;;;;;;;13.90;99.90;;;;;;5096211;28;19931;-41
2022/11/07 09:12:30;;;;;;;;;;;13.90;99.90;;;;;;5109979;28;19937;-42
2022/11/07 09:14:56;;;;;;;;;;;13.90;99.90;;;;;;5099414;28;19914;-35
2022/11/07 09:17:21;;;;;;;;;;;13.90;99.90;;;;;;5108516;28;19908;-36
2022/11/07 09:19:47;;;;;;;;;;;13.90;99.90;;;;;;5109079;27;19912;-40
2022/11/07 09:22:13;;;;;;;;;;;13.90;99.90;;;;;;5098615;28;20364;-37
2022/11/07 09:24:38;;;;;;;;;;;13.90;99.90;;;;;;5107423;28;19911;-40
2022/11/07 09:27:04;;;;;;;;;;;14.00;99.90;;;;;;5096779;28;19908;-40
2022/11/07 09:29:29;;;;;;;;;;;14.00;99.90;;;;;;5109750;28;19908;-41
2022/11/07 09:31:55;;;;;;;;;;;14.10;99.90;;;;;;5102143;28;19908;-39
2022/11/07 09:34:20;;;;;;;;;;;14.10;99.90;;;;;;5105400;28;19961;-38
2022/11/07 09:36:46;;;;;;;;;;;14.10;99.90;;;;;;5095529;28;19908;-34
2022/11/07 09:39:11;;;;;;;;;;;14.10;99.90;;;;;;5099309;28;19915;-43
2022/11/07 09:41:55;;;;;;;;;;;14.10;99.90;;;;;;5113942;28;20027;-53
2022/11/07 09:44:27;;;;;;;;;;;14.10;99.90;;;;;;5115712;28;19911;-34
2022/11/07 09:47:19;;;;;;;;;;;14.10;99.90;;;;;;5115347;28;20456;-39
2022/11/07 09:49:57;;;;;;;;;;;14.20;99.90;;;;;;5098090;28;20364;-33
2022/11/07 09:52:28;;;;;;;;;;;14.20;99.90;;;;;;5098780;28;19907;-42
2022/11/07 09:55:00;;;;;;;;;;;14.20;99.90;;;;;;5111029;28;19908;-36
2022/11/07 09:57:28;;;;;;;;;;;14.20;99.90;;;;;;5102478;28;19912;-38
2022/11/07 09:59:56;;;;;;;;;;;14.20;99.90;;;;;;5104894;28;20375;-38
2022/11/07 10:02:26;;;;;;;;;;;14.20;99.90;;;;;;5109358;28;20013;-40
2022/11/07 10:04:59;;;;;;;;;;;14.30;99.90;;;;;;5106577;28;20382;-44
2022/11/07 10:07:30;;;;;;;;;;;14.30;99.90;;;;;;5107892;28;19915;-51
2022/11/07 10:10:12;;;;;;;;;;;14.30;99.90;;;;;;5115546;28;19907;-38
2022/11/07 10:12:50;;;;;;;;;;;14.30;99.90;;;;;;5113295;28;20272;-43
2022/11/07 10:15:15;;;;;;;;;;;14.30;99.90;;;;;;5096010;28;20318;-38
2022/11/07 10:17:48;;;;;;;;;;;14.30;99.90;;;;;;5095891;28;19908;-35
2022/11/07 10:20:13;;;;;;;;;;;14.30;99.90;;;;;;5094389;28;19943;-42
2022/11/07 10:22:39;;;;;;;;;;;14.30;99.90;;;;;;5104166;27;19907;-39
2022/11/07 10:25:16;;;;;;;;;;;14.40;99.90;;;;;;5094948;28;19957;-36
2022/11/07 10:27:44;;;;;;;;;;;14.40;99.90;;;;;;5098774;28;19907;-41
2022/11/07 10:30:14;;;;;;;;;;;14.40;99.90;;;;;;5110408;28;19961;-38
2022/11/07 10:32:52;;;;;;;;;;;14.40;99.90;;;;;;5118757;27;20447;-40
2022/11/07 10:35:23;;;;;;;;;;;14.40;99.90;;;;;;5106400;28;19908;-39
2022/11/07 10:38:03;;;;;;;;;;;14.40;99.90;;;;;;5101426;27;20347;-33
2022/11/07 10:40:37;;;;;;;;;;;14.50;99.90;;;;;;5102350;28;19912;-41
2022/11/07 10:43:06;;;;;;;;;;;14.60;99.90;;;;;;5107750;28;20363;-39
2022/11/07 10:45:31;;;;;;;;;;;14.60;99.90;;;;;;5108728;28;20390;-35
2022/11/07 10:47:59;;;;;;;;;;;14.70;99.90;;;;;;5103526;28;19955;-37
2022/11/07 10:50:25;;;;;;;;;;;14.70;99.90;;;;;;5107133;28;19908;-38
2022/11/07 10:52:54;;;;;;;;;;;14.80;99.90;;;;;;5094041;28;20391;-36
2022/11/07 10:55:20;;;;;;;;;;;14.80;99.90;;;;;;5105706;27;20006;-32
2022/11/07 10:57:49;;;;;;;;;;;14.80;99.90;;;;;;5103516;27;20338;-39
2022/11/07 11:00:26;;;;;;;;;;;14.80;99.90;;;;;;5101917;28;20284;-35
2022/11/07 11:02:52;;;;;;;;;;;14.90;99.90;;;;;;5103883;28;19962;-38
2022/11/07 11:05:22;;;;;;;;;;;14.90;99.90;;;;;;5100720;28;19951;-40
2022/11/07 11:07:48;;;;;;;;;;;14.90;99.90;;;;;;5104483;28;20307;-37
2022/11/07 11:10:18;;;;;;;;;;;14.80;99.90;;;;;;5098481;28;19915;-38
2022/11/07 11:12:45;;;;;;;;;;;14.80;99.90;;;;;;5108607;28;19911;-35
2022/11/07 11:15:21;;;;;;;;;;;14.80;99.90;;;;;;5102540;28;19914;-40
2022/11/07 11:17:56;;;;;;;;;;;14.80;99.90;;;;;;5099736;28;20355;-39
2022/11/07 11:20:27;;;;;;;;;;;14.70;99.90;;;;;;5102808;28;19915;-35
2022/11/07 11:22:53;;;;;;;;;;;14.60;99.90;;;;;;5105187;28;19908;-40
2022/11/07 11:25:20;;;;;;;;;;;14.70;99.90;;;;;;5092042;28;19912;-41
2022/11/07 11:27:52;;;;;;;;;;;14.70;99.90;;;;;;5100468;28;19952;-42
2022/11/07 11:30:19;;;;;;;;;;;14.70;99.90;;;;;;5099421;28;22145;-37
2022/11/07 11:32:48;;;;;;;;;;;14.70;99.90;;;;;;5099716;28;19915;-32
2022/11/07 11:35:22;;;;;;;;;;;14.60;99.90;;;;;;5103093;28;19915;-39
2022/11/07 11:37:51;;;;;;;;;;;14.70;99.90;;;;;;5101739;28;19965;-38
2022/11/07 11:40:18;;;;;;;;;;;14.70;99.90;;;;;;5098258;28;19919;-45
2022/11/07 11:42:43;;;;;;;;;;;14.70;99.90;;;;;;5096595;28;20548;-36
2022/11/07 11:45:23;;;;;;;;;;;14.70;99.90;;;;;;5099770;28;19915;-38
2022/11/07 11:47:59;;;;;;;;;;;14.70;99.90;;;;;;5096193;28;19908;-41
2022/11/07 11:50:31;;;;;;;;;;;14.70;99.90;;;;;;5102056;28;19933;-37
2022/11/07 11:52:57;;;;;;;;;;;14.80;99.90;;;;;;5110205;28;19941;-39
2022/11/07 11:55:26;;;;;;;;;;;14.80;99.90;;;;;;5108798;28;20491;-37
2022/11/07 11:58:00;;;;;;;;;;;14.80;99.90;;;;;;5101521;28;19966;-42
2022/11/07 12:00:26;;;;;;;;;;;14.80;99.90;;;;;;5099564;28;19912;-40
2022/11/07 12:02:54;;;;;;;;;;;14.90;99.90;;;;;;5097690;28;20330;-37
2022/11/07 12:05:39;;;;;;;;;;;14.90;99.90;;;;;;5097419;28;19919;-39
2022/11/07 12:08:16;;;;;;;;;;;14.90;99.90;;;;;;5099528;28;20364;-40
2022/11/07 12:10:51;;;;;;;;;;;14.90;99.90;;;;;;5102236;28;19936;-40
2022/11/07 12:13:32;;;;;;;;;;;14.90;99.90;;;;;;5098079;28;20349;-35
2022/11/07 12:16:21;;;;;;;;;;;14.90;99.90;;;;;;5099029;28;19960;-39
2022/11/07 12:18:53;;;;;;;;;;;14.80;99.90;;;;;;5101244;28;19923;-36
2022/11/07 12:21:24;;;;;;;;;;;14.80;99.90;;;;;;5100825;28;20471;-37
2022/11/07 12:24:08;;;;;;;;;;;14.80;99.90;;;;;;5111807;28;20427;-39
2022/11/07 12:26:39;;;;;;;;;;;14.90;99.90;;;;;;5116985;28;19907;-35
2022/11/07 12:29:14;;;;;;;;;;;14.90;99.90;;;;;;5113745;28;19907;-38
2022/11/07 12:31:39;;;;;;;;;;;15.00;99.90;;;;;;5097467;28;19912;-42
2022/11/07 12:34:07;;;;;;;;;;;15.00;99.90;;;;;;5101569;28;20364;-39
2022/11/07 12:36:52;;;;;;;;;;;15.00;99.90;;;;;;5095755;28;20303;-38
2022/11/07 12:39:18;;;;;;;;;;;15.10;99.90;;;;;;5102284;28;20366;-36
2022/11/07 12:41:48;;;;;;;;;;;15.10;99.90;;;;;;5105869;28;19924;-36
2022/11/07 12:44:14;;;;;;;;;;;15.10;99.90;;;;;;5099253;27;19912;-40
2022/11/07 12:46:42;;;;;;;;;;;15.10;99.90;;;;;;5097763;28;20413;-36
2022/11/07 12:49:12;;;;;;;;;;;15.00;99.90;;;;;;5100433;28;19914;-41
2022/11/07 12:51:57;;;;;;;;;;;15.00;99.90;;;;;;5097194;28;19907;-43
2022/11/07 12:54:31;;;;;;;;;;;15.10;99.90;;;;;;5099375;28;19961;-38
2022/11/07 12:56:57;;;;;;;;;;;15.10;99.90;;;;;;5097477;28;19918;-41
2022/11/07 12:59:25;;;;;;;;;;;15.10;99.90;;;;;;5106432;28;20301;-39
2022/11/07 13:02:05;;;;;;;;;;;15.10;99.90;;;;;;5102623;28;20348;-36
2022/11/07 13:04:31;;;;;;;;;;;15.10;99.90;;;;;;5102117;28;20372;-41
2022/11/07 13:07:02;;;;;;;;;;;15.00;99.90;;;;;;5098474;28;19926;-42
2022/11/07 13:09:46;;;;;;;;;;;15.00;99.90;;;;;;5094150;28;19908;-35
2022/11/07 13:12:18;;;;;;;;;;;14.90;99.90;;;;;;5092577;28;19939;-38
2022/11/07 13:14:44;;;;;;;;;;;14.80;99.90;;;;;;5090892;28;20257;-37
2022/11/07 13:17:14;;;;;;;;;;;14.80;99.90;;;;;;5105662;28;19908;-34
2022/11/07 13:19:42;;;;;;;;;;;14.80;99.90;;;;;;5105665;28;19907;-37
2022/11/07 13:22:16;;;;;;;;;;;14.80;99.90;;;;;;5107357;28;19919;-38
2022/11/07 13:27:35;;;;;;;;;;;14.80;99.90;;;;;;5104787;28;20375;-38
2022/11/07 13:30:13;;;;;;;;;;;14.80;99.90;;;;;;5106972;28;19907;-38
2022/11/07 13:32:39;;;;;;;;;;;14.80;99.90;;;;;;5111633;28;19908;-36
2022/11/07 13:35:24;;;;;;;;;;;14.80;99.90;;;;;;5107175;28;20014;-38
2022/11/07 13:37:53;;;;;;;;;;;14.80;99.90;;;;;;5102601;28;19908;-38
2022/11/07 13:40:24;;;;;;;;;;;14.90;99.90;;;;;;5108614;28;20028;-44
2022/11/07 13:42:56;;;;;;;;;;;14.80;99.90;;;;;;5097735;28;20410;-39
2022/11/07 13:45:28;;;;;;;;;;;14.80;99.90;;;;;;5104136;28;19907;-38
2022/11/07 13:47:56;;;;;;;;;;;14.90;99.90;;;;;;5113771;28;19994;-39
2022/11/07 13:50:23;;;;;;;;;;;14.90;99.90;;;;;;5104127;28;19908;-38
2022/11/07 13:53:03;;;;;;;;;;;14.90;99.90;;;;;;5107810;28;19912;-37
2022/11/07 13:55:34;;;;;;;;;;;14.90;99.90;;;;;;5114535;28;19908;-39
2022/11/07 13:58:05;;;;;;;;;;;14.90;99.90;;;;;;5095087;28;19908;-40
2022/11/07 14:00:33;;;;;;;;;;;15.00;99.90;;;;;;5094883;28;19951;-38
2022/11/07 14:02:59;;;;;;;;;;;15.00;99.90;;;;;;5104016;28;19915;-34
2022/11/07 14:05:26;;;;;;;;;;;15.00;99.90;;;;;;5109557;28;20010;-35
2022/11/07 14:07:59;;;;;;;;;;;15.10;99.90;;;;;;5112996;28;19908;-38
2022/11/07 14:10:27;;;;;;;;;;;15.10;99.90;;;;;;5100885;28;19904;-38
2022/11/07 14:12:58;;;;;;;;;;;15.20;99.90;;;;;;5110472;28;19919;-38
2022/11/07 14:15:24;;;;;;;;;;;15.20;99.90;;;;;;5094601;28;19911;-37
2022/11/07 14:17:50;;;;;;;;;;;15.20;99.90;;;;;;5110699;28;19907;-38
2022/11/07 14:20:17;;;;;;;;;;;15.30;99.90;;;;;;5112844;28;19907;-47
2022/11/07 14:23:09;;;;;;;;;;;15.30;99.90;;;;;;5106036;28;19908;-42
2022/11/07 14:25:35;;;;;;;;;;;15.30;99.90;;;;;;5102131;28;19978;-37
2022/11/07 14:28:00;;;;;;;;;;;15.20;99.90;;;;;;5099389;28;19912;-55
2022/11/07 14:30:29;;;;;;;;;;;15.20;99.90;;;;;;5096675;28;19918;-40